createdAt,value
2018-02-09T00:02:19.632Z,24.07
2018-02-09T00:04:47.095Z,25.20
2018-02-09T00:07:14.610Z,24.50
2018-02-09T00:09:42.825Z,24.07
2018-02-09T00:12:10.314Z,25.47
2018-02-09T00:14:37.854Z,24.77
2018-02-09T00:17:05.627Z,24.07
2018-02-09T00:19:33.380Z,24.97
2018-02-09T00:22:01.462Z,22.30
2018-02-09T00:24:30.282Z,23.97
2018-02-09T00:26:58.030Z,24.27
2018-02-09T00:29:25.527Z,24.20
2018-02-09T00:31:53.227Z,24.03
2018-02-09T00:34:20.754Z,23.93
2018-02-09T00:36:48.267Z,25.23
2018-02-09T00:39:16.028Z,25.93
2018-02-09T00:41:44.221Z,23.60
2018-02-09T00:44:11.862Z,24.80
2018-02-09T00:46:39.391Z,26.10
2018-02-09T00:49:07.692Z,26.50
2018-02-09T00:51:35.231Z,25.63
2018-02-09T00:54:03.613Z,25.57
2018-02-09T00:56:31.307Z,25.80
2018-02-09T00:58:59.755Z,27.20
2018-02-09T01:01:27.459Z,25.40
2018-02-09T01:03:55.306Z,25.87
2018-02-09T01:06:23.171Z,27.10
2018-02-09T01:08:50.734Z,24.90
2018-02-09T01:11:18.239Z,25.17
2018-02-09T01:13:45.781Z,24.53
2018-02-09T01:16:13.288Z,25.10
2018-02-09T01:18:41.801Z,25.00
2018-02-09T01:21:09.835Z,24.87
2018-02-09T01:23:37.324Z,25.87
2018-02-09T01:26:05.799Z,24.07
2018-02-09T01:28:33.318Z,24.23
2018-02-09T01:31:00.783Z,25.43
2018-02-09T01:33:28.272Z,23.77
2018-02-09T01:35:56.078Z,23.80
2018-02-09T01:38:23.603Z,24.03
2018-02-09T01:40:51.110Z,23.80
2018-02-09T01:43:19.342Z,25.17
2018-02-09T01:45:47.359Z,24.57
2018-02-09T01:48:14.875Z,25.50
2018-02-09T01:50:42.335Z,24.50
2018-02-09T01:53:10.083Z,24.23
2018-02-09T01:55:37.578Z,25.27
2018-02-09T01:58:05.351Z,22.53
2018-02-09T02:00:33.293Z,23.87
2018-02-09T02:03:02.252Z,23.23
2018-02-09T02:05:29.798Z,25.27
2018-02-09T02:07:57.594Z,24.33
2018-02-09T02:10:25.344Z,24.13
2018-02-09T02:12:53.751Z,24.43
2018-02-09T02:15:21.290Z,25.50
2018-02-09T02:17:50.469Z,24.40
2018-02-09T02:20:18.221Z,25.47
2018-02-09T02:22:46.789Z,25.73
2018-02-09T02:25:15.275Z,27.47
2018-02-09T02:27:43.096Z,25.97
2018-02-09T02:30:10.703Z,25.83
2018-02-09T02:32:38.984Z,26.03
2018-02-09T02:35:06.510Z,25.73
2018-02-09T02:37:34.223Z,25.53
2018-02-09T02:40:02.531Z,25.53
2018-02-09T02:42:30.043Z,26.53
2018-02-09T02:44:57.560Z,27.63
2018-02-09T02:47:25.853Z,27.80
2018-02-09T02:49:53.369Z,26.50
2018-02-09T02:52:20.911Z,26.40
2018-02-09T02:54:48.402Z,27.00
2018-02-09T02:57:15.910Z,27.17
2018-02-09T02:59:43.394Z,25.47
2018-02-09T03:02:10.955Z,24.73
2018-02-09T03:04:38.474Z,26.37
2018-02-09T03:07:05.978Z,27.43
2018-02-09T03:09:33.523Z,26.77
2018-02-09T03:12:01.296Z,26.97
2018-02-09T03:14:29.127Z,24.70
2018-02-09T03:16:56.926Z,25.13
2018-02-09T03:19:24.427Z,26.13
2018-02-09T03:21:52.138Z,25.53
2018-02-09T03:24:19.848Z,37.30
2018-02-09T03:26:47.409Z,28.40
2018-02-09T03:29:14.937Z,28.70
2018-02-09T03:31:43.842Z,27.57
2018-02-09T03:34:11.382Z,27.33
2018-02-09T03:36:39.106Z,26.83
2018-02-09T03:39:06.840Z,28.83
2018-02-09T03:41:34.565Z,28.60
2018-02-09T03:44:02.067Z,27.93
2018-02-09T03:46:29.575Z,27.70
2018-02-09T03:48:57.825Z,30.77
2018-02-09T03:51:25.574Z,28.23
2018-02-09T03:53:54.015Z,30.17
2018-02-09T03:56:21.574Z,31.17
2018-02-09T03:58:49.078Z,29.83
2018-02-09T04:01:17.961Z,31.10
2018-02-09T04:03:46.270Z,31.77
2018-02-09T04:06:13.974Z,30.93
2018-02-09T04:08:41.467Z,30.17
2018-02-09T04:11:09.250Z,30.23
2018-02-09T04:13:36.717Z,31.17
2018-02-09T04:16:04.267Z,31.30
2018-02-09T04:18:31.799Z,29.87
2018-02-09T04:21:00.382Z,29.90
2018-02-09T04:23:28.100Z,29.63
2018-02-09T04:25:56.375Z,31.00
2018-02-09T04:28:23.840Z,30.00
2018-02-09T04:30:51.367Z,30.87
2018-02-09T04:33:19.101Z,30.00
2018-02-09T04:35:46.706Z,29.30
2018-02-09T04:38:14.206Z,29.00
2018-02-09T04:40:41.722Z,29.33
2018-02-09T04:43:10.142Z,29.70
2018-02-09T04:45:38.006Z,31.47
2018-02-09T04:48:05.748Z,29.53
2018-02-09T04:50:33.282Z,30.30
2018-02-09T04:53:00.746Z,30.10
2018-02-09T04:55:28.286Z,28.87
2018-02-09T04:57:57.494Z,31.90
2018-02-09T05:00:25.423Z,31.57
2018-02-09T05:02:52.891Z,31.37
2018-02-09T05:05:20.406Z,34.40
2018-02-09T05:07:48.135Z,32.93
2018-02-09T05:10:15.635Z,31.93
2018-02-09T05:12:43.114Z,31.93
2018-02-09T05:15:10.638Z,31.90
2018-02-09T05:17:39.212Z,32.13
2018-02-09T05:20:07.735Z,32.07
2018-02-09T05:22:36.193Z,33.10
2018-02-09T05:25:03.674Z,31.50
2018-02-09T05:27:31.167Z,32.47
2018-02-09T05:29:59.247Z,31.50
2018-02-09T05:32:26.868Z,33.53
2018-02-09T05:34:54.330Z,32.07
2018-02-09T05:37:22.678Z,30.63
2018-02-09T05:39:50.266Z,32.53
2018-02-09T05:42:18.026Z,29.77
2018-02-09T05:44:45.617Z,31.23
2018-02-09T05:47:13.162Z,30.67
2018-02-09T05:49:40.655Z,31.23
2018-02-09T05:52:08.616Z,30.73
2018-02-09T05:54:36.094Z,30.70
2018-02-09T05:57:03.588Z,30.60
2018-02-09T05:59:31.465Z,30.70
2018-02-09T06:01:58.994Z,30.53
2018-02-09T06:04:26.458Z,30.30
2018-02-09T06:06:53.943Z,29.93
2018-02-09T06:09:21.754Z,30.77
2018-02-09T06:11:49.244Z,32.10
2018-02-09T06:14:17.515Z,31.27
2018-02-09T06:16:46.203Z,32.77
2018-02-09T06:19:13.785Z,33.27
2018-02-09T06:21:43.037Z,33.03
2018-02-09T06:24:11.290Z,32.33
2018-02-09T06:26:38.850Z,34.40
2018-02-09T06:29:06.688Z,33.20
2018-02-09T06:31:34.199Z,32.43
2018-02-09T06:34:01.730Z,34.10
2018-02-09T06:36:29.206Z,33.97
2018-02-09T06:38:57.007Z,33.37
2018-02-09T06:41:25.816Z,35.47
2018-02-09T06:43:53.303Z,33.03
2018-02-09T06:46:21.078Z,37.03
2018-02-09T06:48:49.051Z,34.27
2018-02-09T06:51:17.483Z,35.97
2018-02-09T06:53:45.329Z,35.97
2018-02-09T06:56:12.794Z,35.97
2018-02-09T06:58:40.686Z,34.70
2018-02-09T07:01:08.165Z,34.97
2018-02-09T07:03:35.678Z,36.37
2018-02-09T07:06:03.614Z,33.37
2018-02-09T07:08:32.079Z,28.53
2018-02-09T07:10:59.574Z,33.00
2018-02-09T07:13:27.561Z,32.37
2018-02-09T07:15:55.059Z,33.43
2018-02-09T07:18:23.547Z,33.90
2018-02-09T07:20:51.443Z,36.63
2018-02-09T07:23:19.191Z,30.80
2018-02-09T07:25:46.702Z,28.07
2018-02-09T07:28:14.660Z,31.03
2018-02-09T07:30:42.127Z,30.37
2018-02-09T07:33:09.857Z,40.63
2018-02-09T07:35:37.447Z,33.67
2018-02-09T07:38:05.176Z,42.00
2018-02-09T07:40:32.690Z,45.33
2018-02-09T07:43:00.174Z,42.43
2018-02-09T07:45:27.746Z,45.83
2018-02-09T07:47:55.535Z,43.00
2018-02-09T07:50:23.928Z,47.13
2018-02-09T07:52:51.485Z,46.70
2018-02-09T07:55:19.031Z,45.67
2018-02-09T07:57:47.693Z,44.60
2018-02-09T08:00:15.723Z,44.73
2018-02-09T08:02:43.930Z,45.73
2018-02-09T08:05:11.431Z,46.23
2018-02-09T08:07:39.297Z,46.17
2018-02-09T08:10:06.874Z,44.90
2018-02-09T08:12:34.377Z,45.43
2018-02-09T08:15:01.896Z,45.93
2018-02-09T08:17:29.398Z,46.33
2018-02-09T08:19:57.366Z,47.60
2018-02-09T08:22:25.336Z,45.47
2018-02-09T08:24:53.150Z,45.53
2018-02-09T08:27:20.623Z,45.07
2018-02-09T08:29:49.334Z,44.67
2018-02-09T08:32:17.032Z,45.30
2018-02-09T08:34:44.579Z,44.87
2018-02-09T08:37:12.060Z,44.37
2018-02-09T08:39:39.587Z,43.63
2018-02-09T08:42:07.605Z,39.60
2018-02-09T08:44:35.087Z,43.53
2018-02-09T08:47:02.823Z,41.07
2018-02-09T08:49:30.351Z,36.20
2018-02-09T08:51:58.070Z,40.27
2018-02-09T08:54:25.607Z,39.73
2018-02-09T08:56:53.075Z,41.37
2018-02-09T08:59:20.874Z,42.23
2018-02-09T09:01:50.863Z,41.17
2018-02-09T09:04:18.607Z,43.83
2018-02-09T09:06:46.357Z,40.27
2018-02-09T09:09:14.829Z,41.60
2018-02-09T09:11:42.311Z,44.10
2018-02-09T09:14:09.825Z,35.83
2018-02-09T09:16:38.209Z,38.03
2018-02-09T09:19:05.735Z,40.13
2018-02-09T09:21:34.060Z,41.40
2018-02-09T09:24:01.546Z,42.70
2018-02-09T09:26:29.808Z,41.57
2018-02-09T09:28:58.044Z,40.43
2018-02-09T09:31:25.751Z,39.93
2018-02-09T09:33:53.299Z,41.47
2018-02-09T09:36:20.995Z,40.70
2018-02-09T09:38:49.318Z,39.97
2018-02-09T09:41:17.133Z,39.37
2018-02-09T09:43:45.446Z,38.70
2018-02-09T09:46:13.966Z,37.30
2018-02-09T09:48:42.299Z,26.60
2018-02-09T09:51:10.318Z,34.30
2018-02-09T09:53:37.782Z,30.13
2018-02-09T09:56:05.319Z,39.03
2018-02-09T09:58:32.920Z,39.87
2018-02-09T10:01:00.681Z,38.93
2018-02-09T10:03:28.870Z,39.87
2018-02-09T10:05:58.133Z,30.13
2018-02-09T10:08:26.090Z,24.10
2018-02-09T10:10:53.671Z,30.77
2018-02-09T10:13:22.370Z,36.47
2018-02-09T10:15:50.889Z,37.73
2018-02-09T10:18:18.620Z,37.87
2018-02-09T10:20:46.413Z,28.90
2018-02-09T10:23:14.836Z,32.70
2018-02-09T10:25:42.828Z,26.70
2018-02-09T10:28:11.027Z,38.70
2018-02-09T10:30:39.158Z,38.67
2018-02-09T10:33:07.735Z,32.87
2018-02-09T10:35:36.282Z,34.70
2018-02-09T10:38:03.798Z,29.03
2018-02-09T10:40:31.411Z,28.63
2018-02-09T10:42:59.131Z,31.73
2018-02-09T10:45:27.145Z,33.43
2018-02-09T10:47:55.822Z,31.30
2018-02-09T10:50:23.623Z,33.87
2018-02-09T10:52:51.657Z,37.20
2018-02-09T10:55:20.547Z,30.80
2018-02-09T10:57:48.287Z,34.33
2018-02-09T11:00:16.115Z,36.37
2018-02-09T11:02:43.640Z,33.50
2018-02-09T11:05:11.558Z,27.40
2018-02-09T11:07:39.071Z,28.77
2018-02-09T11:10:12.480Z,35.90
2018-02-09T11:12:43.182Z,31.40
2018-02-09T11:15:11.679Z,34.80
2018-02-09T11:17:39.747Z,33.57
2018-02-09T11:20:07.219Z,33.70
2018-02-09T11:22:35.027Z,35.27
2018-02-09T11:25:02.526Z,34.23
2018-02-09T11:27:31.468Z,33.00
2018-02-09T11:29:59.519Z,30.03
2018-02-09T11:32:27.051Z,28.63
2018-02-09T11:34:54.978Z,29.60
2018-02-09T11:37:22.958Z,29.83
2018-02-09T11:39:50.471Z,27.10
2018-02-09T11:42:18.845Z,28.13
2018-02-09T11:44:46.329Z,29.60
2018-02-09T11:47:17.875Z,28.13
2018-02-09T11:49:45.428Z,29.00
2018-02-09T11:52:13.214Z,28.83
2018-02-09T11:54:42.149Z,30.00
2018-02-09T11:57:09.679Z,29.30
2018-02-09T11:59:37.179Z,30.50
2018-02-09T12:02:04.693Z,30.73
2018-02-09T12:04:32.411Z,30.33
2018-02-09T12:07:00.173Z,30.20
2018-02-09T12:09:28.018Z,31.33
2018-02-09T12:11:55.551Z,29.33
2018-02-09T12:14:23.339Z,32.10
2018-02-09T12:16:50.940Z,32.67
2018-02-09T12:19:18.915Z,29.00
2018-02-09T12:21:47.341Z,32.73
2018-02-09T12:24:14.859Z,29.87
2018-02-09T12:26:42.958Z,30.63
2018-02-09T12:29:11.279Z,27.40
2018-02-09T12:31:39.053Z,34.57
2018-02-09T12:34:06.766Z,31.87
2018-02-09T12:36:35.055Z,31.27
2018-02-09T12:39:02.911Z,26.13
2018-02-09T12:41:30.471Z,31.00
2018-02-09T12:43:57.999Z,24.10
2018-02-09T12:46:25.519Z,29.03
2018-02-09T12:48:53.083Z,26.17
2018-02-09T12:51:22.875Z,27.50
2018-02-09T12:53:51.490Z,30.00
2018-02-09T12:56:19.702Z,28.87
2018-02-09T12:58:47.417Z,23.50
2018-02-09T13:01:15.143Z,16.53
2018-02-09T13:03:42.649Z,23.23
2018-02-09T13:06:11.464Z,22.73
2018-02-09T13:08:39.568Z,19.97
2018-02-09T13:11:07.043Z,23.67
2018-02-09T13:13:34.551Z,22.87
2018-02-09T13:16:02.047Z,22.97
2018-02-09T13:18:41.146Z,20.67
2018-02-09T13:21:08.603Z,19.23
2018-02-09T13:23:47.931Z,20.40
2018-02-09T13:26:15.431Z,17.20
2018-02-09T13:28:54.747Z,19.63
2018-02-09T13:31:22.206Z,16.97
2018-02-09T13:33:49.690Z,18.00
2018-02-09T13:36:17.254Z,19.20
2018-02-09T13:38:44.754Z,18.33
2018-02-09T13:41:12.286Z,18.37
2018-02-09T13:43:39.807Z,18.20
2018-02-09T13:46:07.267Z,15.07
2018-02-09T13:48:34.831Z,18.23
2018-02-09T13:51:02.919Z,16.73
2018-02-09T13:53:30.407Z,18.03
2018-02-09T13:55:58.738Z,16.93
2018-02-09T13:58:27.720Z,17.27
2018-02-09T14:00:55.259Z,15.43
2018-02-09T14:03:23.518Z,16.37
2018-02-09T14:05:51.415Z,17.40
2018-02-09T14:08:19.114Z,15.13
2018-02-09T14:10:46.921Z,15.67
2018-02-09T14:13:15.259Z,15.60
2018-02-09T14:15:43.086Z,14.77
2018-02-09T14:18:10.551Z,13.23
2018-02-09T14:20:38.410Z,14.83
2018-02-09T14:23:05.955Z,12.83
2018-02-09T14:25:35.158Z,14.03
2018-02-09T14:28:02.647Z,10.67
2018-02-09T14:30:30.142Z,13.37
2018-02-09T14:32:57.610Z,13.43
2018-02-09T14:35:25.139Z,13.30
2018-02-09T14:37:52.974Z,12.43
2018-02-09T14:40:20.496Z,13.00
2018-02-09T14:42:48.814Z,10.40
2018-02-09T14:45:16.295Z,12.67
2018-02-09T14:47:43.847Z,11.07
2018-02-09T14:50:11.351Z,13.80
2018-02-09T14:52:38.808Z,12.33
2018-02-09T14:55:06.537Z,14.60
2018-02-09T14:57:34.006Z,13.90
2018-02-09T15:00:01.521Z,14.93
2018-02-09T15:02:28.979Z,12.53
2018-02-09T15:04:56.458Z,12.80
2018-02-09T15:07:23.926Z,13.67
2018-02-09T15:09:51.418Z,14.87
2018-02-09T15:12:18.899Z,14.43
2018-02-09T15:14:46.383Z,14.97
2018-02-09T15:17:13.883Z,14.37
2018-02-09T15:19:41.340Z,13.60
2018-02-09T15:22:08.803Z,13.57
2018-02-09T15:24:36.280Z,13.63
2018-02-09T15:27:03.735Z,14.27
2018-02-09T15:29:31.223Z,14.73
2018-02-09T15:31:58.689Z,13.47
2018-02-09T15:34:26.172Z,13.53
2018-02-09T15:36:53.639Z,14.43
2018-02-09T15:39:21.160Z,14.37
2018-02-09T15:41:48.615Z,14.10
2018-02-09T15:44:16.112Z,13.00
2018-02-09T15:46:43.579Z,14.03
2018-02-09T15:49:11.104Z,13.90
2018-02-09T15:51:38.567Z,13.53
2018-02-09T15:54:06.039Z,14.77
2018-02-09T15:56:33.600Z,12.50
2018-02-09T15:59:01.063Z,14.87
2018-02-09T16:01:28.538Z,13.30
2018-02-09T16:03:55.995Z,14.37
2018-02-09T16:06:23.475Z,13.27
2018-02-09T16:08:50.930Z,13.33
2018-02-09T16:11:18.407Z,13.10
2018-02-09T16:13:45.867Z,13.07
2018-02-09T16:16:13.335Z,13.10
2018-02-09T16:18:40.806Z,12.47
2018-02-09T16:21:08.291Z,13.90
2018-02-09T16:23:35.746Z,14.23
2018-02-09T16:26:03.258Z,13.17
2018-02-09T16:28:30.719Z,12.83
2018-02-09T16:30:58.199Z,13.47
2018-02-09T16:33:25.663Z,12.77
2018-02-09T16:35:53.153Z,12.40
2018-02-09T16:38:20.614Z,13.13
2018-02-09T16:40:48.100Z,12.30
2018-02-09T16:43:15.559Z,12.90
2018-02-09T16:45:43.054Z,13.40
2018-02-09T16:48:10.514Z,13.43
2018-02-09T16:50:37.987Z,13.30
2018-02-09T16:53:05.443Z,12.60
2018-02-09T16:55:32.924Z,13.20
2018-02-09T16:58:00.400Z,14.10
2018-02-09T17:00:27.874Z,12.87
2018-02-09T17:02:55.331Z,12.67
2018-02-09T17:05:22.811Z,12.53
2018-02-09T17:07:50.268Z,13.53
2018-02-09T17:10:17.728Z,14.07
2018-02-09T17:12:45.231Z,13.60
2018-02-09T17:15:12.695Z,12.83
2018-02-09T17:17:40.179Z,13.67
2018-02-09T17:20:07.636Z,13.77
2018-02-09T17:22:35.123Z,12.80
2018-02-09T17:25:02.611Z,12.53
2018-02-09T17:27:30.091Z,12.77
2018-02-09T17:29:57.547Z,12.10
2018-02-09T17:32:25.035Z,12.50
2018-02-09T17:34:52.494Z,12.40
2018-02-09T17:37:19.983Z,13.27
2018-02-09T17:39:47.447Z,13.50
2018-02-09T17:42:14.930Z,13.07
2018-02-09T17:44:42.388Z,13.90
2018-02-09T17:47:09.871Z,11.70
2018-02-09T17:49:37.338Z,12.73
2018-02-09T17:52:04.824Z,11.93
2018-02-09T17:54:32.392Z,13.07
2018-02-09T17:56:59.870Z,11.43
2018-02-09T17:59:27.326Z,12.23
2018-02-09T18:01:54.860Z,12.50
2018-02-09T18:04:22.316Z,11.90
2018-02-09T18:06:49.799Z,11.67
2018-02-09T18:09:17.259Z,11.10
2018-02-09T18:11:44.734Z,11.63
2018-02-09T18:14:12.199Z,12.13
2018-02-09T18:16:41.753Z,11.67
2018-02-09T18:19:09.223Z,11.87
2018-02-09T18:21:36.715Z,11.30
2018-02-09T18:24:04.182Z,11.43
2018-02-09T18:26:31.668Z,11.10
2018-02-09T18:28:59.131Z,11.87
2018-02-09T18:31:26.615Z,10.67
2018-02-09T18:33:54.072Z,11.20
2018-02-09T18:36:21.534Z,10.70
2018-02-09T18:38:49.015Z,10.50
2018-02-09T18:41:16.479Z,11.13
2018-02-09T18:43:43.980Z,11.20
2018-02-09T18:46:11.447Z,10.60
2018-02-09T18:48:38.938Z,11.67
2018-02-09T18:51:06.412Z,10.47
2018-02-09T18:53:33.923Z,10.57
2018-02-09T18:56:01.383Z,11.73
2018-02-09T18:58:28.872Z,10.93
2018-02-09T19:00:56.337Z,10.97
2018-02-09T19:03:23.819Z,11.07
2018-02-09T19:05:51.274Z,12.17
2018-02-09T19:08:18.769Z,10.83
2018-02-09T19:10:46.222Z,11.20
2018-02-09T19:13:13.721Z,10.57
2018-02-09T19:15:41.175Z,10.90
2018-02-09T19:18:08.680Z,11.63
2018-02-09T19:20:36.143Z,11.40
2018-02-09T19:23:03.634Z,11.47
2018-02-09T19:25:31.086Z,11.97
2018-02-09T19:27:58.563Z,11.37
2018-02-09T19:30:26.028Z,12.70
2018-02-09T19:32:53.504Z,11.30
2018-02-09T19:35:20.970Z,11.87
2018-02-09T19:37:48.454Z,11.90
2018-02-09T19:40:15.922Z,11.77
2018-02-09T19:42:43.471Z,11.40
2018-02-09T19:45:10.931Z,12.03
2018-02-09T19:47:38.409Z,11.40
2018-02-09T19:50:05.937Z,12.80
2018-02-09T19:52:33.496Z,11.50
2018-02-09T19:55:00.982Z,12.57
2018-02-09T19:57:28.435Z,12.20
2018-02-09T19:59:55.915Z,13.07
2018-02-09T20:02:23.370Z,12.50
2018-02-09T20:04:50.847Z,12.67
2018-02-09T20:07:18.307Z,12.67
2018-02-09T20:09:45.788Z,12.03
2018-02-09T20:12:13.255Z,13.43
2018-02-09T20:14:40.735Z,13.97
2018-02-09T20:17:08.190Z,13.03
2018-02-09T20:19:35.666Z,13.67
2018-02-09T20:22:03.122Z,13.07
2018-02-09T20:24:30.594Z,14.47
2018-02-09T20:26:58.055Z,13.23
2018-02-09T20:29:25.544Z,13.17
2018-02-09T20:31:53.012Z,12.83
2018-02-09T20:34:20.491Z,13.07
2018-02-09T20:36:47.960Z,13.80
2018-02-09T20:39:15.444Z,14.13
2018-02-09T20:41:42.907Z,12.63
2018-02-09T20:44:10.382Z,13.87
2018-02-09T20:46:37.843Z,14.10
2018-02-09T20:49:05.336Z,13.73
2018-02-09T20:51:32.850Z,13.77
2018-02-09T20:54:00.333Z,13.27
2018-02-09T20:56:27.792Z,12.40
2018-02-09T20:58:55.271Z,12.53
2018-02-09T21:01:22.723Z,13.27
2018-02-09T21:03:50.198Z,13.20
2018-02-09T21:06:17.659Z,12.10
2018-02-09T21:08:45.181Z,13.10
2018-02-09T21:11:12.646Z,15.40
2018-02-09T21:13:40.120Z,14.50
2018-02-09T21:16:07.580Z,14.43
2018-02-09T21:18:35.048Z,12.97
2018-02-09T21:21:02.535Z,14.07
2018-02-09T21:23:30.003Z,14.83
2018-02-09T21:25:57.495Z,13.87
2018-02-09T21:28:24.992Z,14.77
2018-02-09T21:30:52.475Z,15.30
2018-02-09T21:33:19.942Z,16.37
2018-02-09T21:35:47.433Z,15.77
2018-02-09T21:38:14.899Z,16.20
2018-02-09T21:40:42.387Z,15.53
2018-02-09T21:43:09.858Z,16.90
2018-02-09T21:45:37.377Z,15.27
2018-02-09T21:48:04.843Z,15.70
2018-02-09T21:50:32.325Z,15.70
2018-02-09T21:52:59.829Z,17.40
2018-02-09T21:55:27.319Z,16.13
2018-02-09T21:57:54.787Z,17.10
2018-02-09T22:00:22.271Z,16.53
2018-02-09T22:02:49.736Z,15.53
2018-02-09T22:05:17.263Z,16.77
2018-02-09T22:07:44.724Z,16.30
2018-02-09T22:10:12.211Z,16.20
2018-02-09T22:12:39.830Z,16.70
2018-02-09T22:15:07.311Z,16.00
2018-02-09T22:17:34.796Z,16.17
2018-02-09T22:20:02.270Z,17.07
2018-02-09T22:22:29.727Z,16.90
2018-02-09T22:24:57.218Z,16.23
2018-02-09T22:27:24.674Z,16.60
2018-02-09T22:29:52.154Z,16.73
2018-02-09T22:32:19.610Z,16.87
2018-02-09T22:34:47.092Z,16.40
2018-02-09T22:37:14.558Z,16.00
2018-02-09T22:39:42.067Z,15.57
2018-02-09T22:42:09.523Z,16.07
2018-02-09T22:44:36.983Z,16.27
2018-02-09T22:47:04.459Z,16.83
2018-02-09T22:49:31.914Z,15.77
2018-02-09T22:51:59.386Z,15.33
2018-02-09T22:54:26.863Z,15.97
2018-02-09T22:56:54.339Z,15.97
2018-02-09T22:59:21.790Z,16.87
2018-02-09T23:01:49.262Z,16.33
2018-02-09T23:04:16.727Z,15.50
2018-02-09T23:06:44.202Z,15.00
2018-02-09T23:09:11.658Z,16.40
2018-02-09T23:11:39.143Z,15.87
2018-02-09T23:14:06.599Z,15.10
2018-02-09T23:16:34.079Z,16.20
2018-02-09T23:19:01.551Z,15.97
2018-02-09T23:21:29.150Z,14.53
2018-02-09T23:23:56.612Z,14.90
2018-02-09T23:26:24.088Z,15.47
2018-02-09T23:28:51.659Z,14.27
2018-02-09T23:31:19.146Z,14.67
2018-02-09T23:33:46.599Z,14.80
2018-02-09T23:36:14.074Z,14.63
2018-02-09T23:38:41.538Z,16.40
2018-02-09T23:41:09.020Z,15.97
2018-02-09T23:43:36.492Z,15.87
2018-02-09T23:46:03.976Z,14.47
2018-02-09T23:48:31.435Z,14.43
2018-02-09T23:50:58.916Z,14.47
2018-02-09T23:53:26.378Z,15.07
2018-02-09T23:55:53.987Z,14.83
2018-02-09T23:58:21.542Z,14.60
